Home > Products > Valid Products > TAF

000
FTUS42 KMFL 311120
TAFPBI
TAF
KPBI 311120Z 3112/0112 24005KT P6SM FEW060 SCT250
     FM311600 28010KT P6SM VCSH SCT040 SCT250
     FM010100 29006KT P6SM SKC=



000
FTUS42 KMFL 311120
TAFMIA
TAF
KMIA 311120Z 3112/0112 VRB04KT P6SM FEW250
     FM311600 25010KT P6SM VCSH SCT040 SCT250
     FM010100 29006KT P6SM SKC=



000
FTUS42 KMFL 311120
TAFFLL
TAF
KFLL 311120Z 3112/0112 25005KT P6SM FEW250
     FM311500 27010KT P6SM VCSH SCT040 SCT250
     FM010100 29008KT P6SM FEW040=



000
FTUS42 KMFL 311120
TAFAPF
TAF
KAPF 311120Z 3112/0112 VRB03KT P6SM VCSH SCT025 BKN040
     FM311400 28008KT P6SM VCSH SCT040 SCT250
     FM311900 30010G20KT P6SM SCT040
     FM010100 31008KT P6SM SKC=



000
FTUS42 KMFL 310916 AAA
TAFAPF
TAF AMD
KAPF 310916Z 3109/0106 VRB03KT P6SM VCSH FEW040 BKN100
     FM311600 28010KT P6SM VCSH SCT040 SCT250
     FM312000 30010G20KT P6SM SCT040
     FM010200 31005KT P6SM SKC=



000
FTUS42 KMFL 310912 AAA
TAFMIA
TAF AMD
KMIA 310912Z 3109/0106 24005KT P6SM FEW060 SCT250
     FM311600 25010KT P6SM VCSH SCT040 SCT250
     FM010100 29006KT P6SM FEW040=



000
FTUS42 KMFL 310911 AAA
TAFFLL
TAF AMD
KFLL 310911Z 3109/0106 22005KT P6SM FEW060 SCT250
     FM311600 28010KT P6SM VCSH SCT040 SCT250
     FM010100 29006KT P6SM FEW040=



000
FTUS42 KMFL 310908 AAA
TAFPBI
TAF AMD
KPBI 310908Z 3109/0106 24005KT P6SM FEW060 SCT250
     FM311600 28010KT P6SM VCSH SCT040 SCT250
     FM010100 29006KT P6SM FEW040=



000
FTUS42 KMFL 310537
TAFMIA
TAF
KMIA 310537Z 3106/0106 25006KT P6SM VCSH FEW030 SCT060
     FM311700 26010KT P6SM VCSH SCT040 SCT250
     FM010100 29006KT P6SM FEW040=



000
FTUS42 KMFL 310537
TAFAPF
TAF
KAPF 310537Z 3106/0106 VRB03KT P6SM BKN100
     FM310800 32004KT P6SM VCSH SCT040 BKN100
     FM311600 26010KT P6SM VCSH SCT040 SCT250
     FM312000 30010KT P6SM FEW040
     FM010200 31005KT P6SM SKC=



000
FTUS42 KMFL 310537
TAFFLL
TAF
KFLL 310537Z 3106/0106 26006KT P6SM VCSH SCT050
     FM311700 26010KT P6SM VCSH SCT040 SCT250
     FM010100 29006KT P6SM FEW040=



000
FTUS42 KMFL 310537
TAFPBI
TAF
KPBI 310537Z 3106/0106 21005KT P6SM FEW060 SCT250
     FM310800 27005KT P6SM VCSH SCT040 SCT250
     FM311700 28010KT P6SM VCSH SCT040 SCT250
     FM010100 29006KT P6SM FEW040=



000
FTUS42 KMFL 310239 AAA
TAFAPF
TAF AMD
KAPF 310239Z 3103/3124 28005KT P6SM SCT070 SCT250
     FM311000 31005KT P6SM VCSH SCT030 BKN060
     FM311800 30012KT P6SM VCSH SCT030 SCT250=



000
FTUS42 KMFL 310234 AAA
TAFFLL
TAF AMD
KFLL 310234Z 3103/3124 10004KT P6SM FEW045 SCT250
     FM310500 VRB02KT P6SM SCT030 SCT250
     FM311000 27005KT P6SM VCSH SCT040 SCT250
     FM311800 29010KT P6SM VCSH SCT040 SCT250=



000
FTUS42 KMFL 310234 AAA
TAFMIA
TAF AMD
KMIA 310234Z 3103/3124 10004KT P6SM SCT045 SCT250
     FM310500 VRB02KT P6SM SCT030 SCT250
     FM311000 27005KT P6SM VCSH SCT040 SCT250
     FM311800 29010KT P6SM VCSH SCT040 SCT250=



000
FTUS42 KMFL 310233 AAA
TAFPBI
TAF AMD
KPBI 310233Z 3103/3124 10004KT P6SM FEW045 SCT250
     FM310500 VRB02KT P6SM SCT030 SCT250
     FM311000 27005KT P6SM VCSH SCT040 SCT250
     FM311800 29010KT P6SM VCSH SCT040 SCT250=



000
FTUS42 KMFL 302336
TAFMIA
TAF
KMIA 302336Z 3100/3124 10007KT P6SM FEW050 SCT250
     FM310200 VRB02KT P6SM VCSH SCT030 SCT250
     FM311400 27004KT P6SM VCSH SCT050 SCT250
     FM312000 29010KT P6SM VCSH SCT040 SCT250=



000
FTUS42 KMFL 302336
TAFFLL
TAF
KFLL 302336Z 3100/3124 09007KT P6SM FEW050 SCT250
     FM310400 VRB03KT P6SM SCT030 SCT250
     FM311200 27007KT P6SM VCSH SCT040 SCT250
     FM311900 29010KT P6SM VCSH SCT040 SCT250=



000
FTUS42 KMFL 302336
TAFPBI
TAF
KPBI 302336Z 3100/3124 07007KT P6SM SCT045 SCT250
     FM310400 VRB02KT P6SM SCT030 SCT250
     FM311200 27005KT P6SM VCSH SCT040 SCT250
     FM311800 29010KT P6SM VCSH SCT040 SCT250=



000
FTUS42 KMFL 302336
TAFAPF
TAF
KAPF 302336Z 3100/3124 25007KT P6SM VCSH SCT070 SCT250
     FM310000 30004KT P6SM VCSH SCT030 SCT250
     FM311400 30012KT P6SM VCSH SCT030 SCT250=



000
FTUS42 KMFL 302130 AAA
TAFAPF
TAF AMD
KAPF 302130Z 3022/3118 23008KT P6SM VCSH FEW070 SCT250
     FM310000 30004KT P6SM VCSH SCT030 SCT250
     FM311200 30010KT P6SM VCSH SCT030 SCT250=



000
FTUS42 KMFL 302126 AAA
TAFMIA
TAF AMD
KMIA 302126Z 3021/3118 07005KT P6SM SCT050 SCT250
     FM310200 VRB02KT P6SM VCSH SCT030 SCT250
     FM311400 27007KT P6SM VCSH SCT050 SCT250=



000
FTUS42 KMFL 302122 AAA
TAFFLL
TAF AMD
KFLL 302122Z 3021/3118 07006KT P6SM FEW050 SCT250
     FM310400 VRB03KT P6SM VCSH SCT030 SCT250
     FM311200 27007KT P6SM VCSH SCT040 SCT250=



000
FTUS42 KMFL 302122 AAA
TAFFLL
TAF AMD
KFLL 302122Z 3021/3118 07006KT P6SM FEW050 SCT250
     FM310400 VRB03KT P6SM VCSH SCT030 SCT250
     FM311200 27007KT P6SM VCSH SCT040 SCT250=



000
FTUS42 KMFL 302118 AAA
TAFPBI
TAF AMD
KPBI 302118Z 3021/3118 08007KT P6SM SCT045 SCT250
     FM310400 VRB02KT P6SM VCSH SCT030 SCT250
     FM311200 28008KT P6SM VCSH SCT040 SCT250=



000
FTUS42 KMFL 301720
TAFMIA
TAF
KMIA 301720Z 3018/3118 VRB05KT P6SM SCT050
     FM310100 VRB03KT P6SM FEW035
     FM311400 27007KT P6SM VCSH SCT050=



000
FTUS42 KMFL 301720
TAFFLL
TAF
KFLL 301720Z 3018/3118 05005KT P6SM SCT050
     FM310000 VRB03KT P6SM FEW035
     FM311400 27007KT P6SM VCSH SCT040=



000
FTUS42 KMFL 301720
TAFPBI
TAF
KPBI 301720Z 3018/3118 VRB05KT P6SM SCT050
     FM310000 VRB02KT P6SM SCT030
     FM311400 28008KT P6SM VCSH SCT040=



000
FTUS42 KMFL 301720
TAFAPF
TAF
KAPF 301720Z 3018/3118 24010KT P6SM FEW050
     FM310000 VRB03KT P6SM FEW035
     FM311300 30008KT P6SM VCSH SCT050=



000
FTUS42 KMFL 301507 AAA
TAFAPF
TAF AMD
KAPF 301507Z 3015/3112 19005KT P6SM SKC
     FM301700 27008KT P6SM SCT050
     FM310000 VRB03KT P6SM FEW035=



000
FTUS42 KMFL 301507 AAA
TAFFLL
TAF AMD
KFLL 301507Z 3015/3112 33004KT P6SM SKC
     FM301600 06009KT P6SM SCT040
     FM310000 VRB03KT P6SM FEW035=



000
FTUS42 KMFL 301507 AAA
TAFPBI
TAF AMD
KPBI 301507Z 3015/3112 28007KT P6SM SKC
     FM301600 05008KT P6SM SCT040
     FM310000 VRB02KT P6SM FEW035=



000
FTUS42 KMFL 301507 AAA
TAFMIA
TAF AMD
KMIA 301507Z 3015/3112 24003KT P6SM SCT030
     FM301600 04009KT P6SM SCT040
     FM310100 VRB03KT P6SM FEW035=



000
FTUS42 KMFL 301127
TAFPBI
TAF
KPBI 301127Z 3012/3112 VRB03KT P6SM FEW040
     FM301600 05008KT P6SM SCT040
     FM310000 VRB02KT P6SM FEW035=



000
FTUS42 KMFL 301127
TAFFLL
TAF
KFLL 301127Z 3012/3112 VRB03KT P6SM FEW040
     FM301600 06009KT P6SM SCT040
     FM310000 VRB03KT P6SM FEW035=



000
FTUS42 KMFL 301127
TAFMIA
TAF
KMIA 301127Z 3012/3112 VRB03KT P6SM SCT040
     FM301600 04009KT P6SM SCT040
     FM310100 VRB03KT P6SM FEW035=



000
FTUS42 KMFL 301127
TAFAPF
TAF
KAPF 301127Z 3012/3112 VRB05KT P6SM SCT080
     FM301700 27008KT P6SM SCT050
     FM310000 VRB03KT P6SM FEW035=



000
FTUS42 KMFL 300906 AAA
TAFAPF
TAF AMD
KAPF 300906Z 3009/3106 VRB03KT P6SM SCT080
     FM301700 27008KT P6SM SCT040
     FM310100 VRB03KT P6SM FEW035=



000
FTUS42 KMFL 300905 AAA
TAFMIA
TAF AMD
KMIA 300905Z 3009/3106 VRB03KT P6SM SCT040
     FM301600 04009KT P6SM SCT040
     FM310100 VRB03KT P6SM FEW035=



000
FTUS42 KMFL 300904 AAA
TAFFLL
TAF AMD
KFLL 300904Z 3009/3106 VRB04KT P6SM FEW030
     FM301600 06009KT P6SM SCT040
     FM310100 VRB03KT P6SM FEW035=



000
FTUS42 KMFL 300903 AAA
TAFPBI
TAF AMD
KPBI 300903Z 3009/3106 VRB03KT P6SM FEW040
     FM301600 05009KT P6SM SCT040
     FM310100 VRB03KT P6SM FEW035=



000
FTUS42 KMFL 300523
TAFMIA
TAF
KMIA 300523Z 3006/3106 VRB03KT P6SM SCT040
     FM301600 04009KT P6SM SCT040
     FM310100 VRB03KT P6SM FEW035=



000
FTUS42 KMFL 300523
TAFPBI
TAF
KPBI 300523Z 3006/3106 VRB03KT P6SM FEW080
     FM301600 05009KT P6SM SCT040
     FM310100 VRB03KT P6SM FEW035=



000
FTUS42 KMFL 300523
TAFFLL
TAF
KFLL 300523Z 3006/3106 VRB04KT P6SM FEW080
     FM301600 06009KT P6SM SCT040
     FM310100 VRB03KT P6SM FEW035=



000
FTUS42 KMFL 300523
TAFAPF
TAF
KAPF 300523Z 3006/3106 VRB03KT P6SM SCT080
     FM301700 27008KT P6SM SCT040
     FM310100 VRB03KT P6SM FEW035=



000
FTUS42 KMFL 300235 AAA
TAFAPF
TAF AMD
KAPF 300235Z 3003/3024 VRB03KT P6SM FEW050
     FM301300 06005KT P6SM FEW035
     FM301800 27007KT P6SM SCT040=



000
FTUS42 KMFL 300234 AAA
TAFMIA
TAF AMD
KMIA 300234Z 3003/3024 08005KT P6SM FEW060
     FM300900 35005KT P6SM FEW035
     FM301700 06006KT P6SM SCT040=



000
FTUS42 KMFL 300233 AAA
TAFFLL
TAF AMD
KFLL 300233Z 3003/3024 08008KT P6SM FEW045 FEW250
     FM300900 33005KT P6SM FEW030
     FM301600 04008KT P6SM SCT040=



000
FTUS42 KMFL 300232 AAA
TAFPBI
TAF AMD
KPBI 300232Z 3003/3024 10005KT P6SM FEW040 FEW080
     FM300900 33005KT P6SM FEW030
     FM301600 05008KT P6SM SCT040=



000
FTUS42 KMFL 292320
TAFAPF
TAF
KAPF 292320Z 3000/3024 28005KT P6SM FEW050
     FM301300 06005KT P6SM FEW035
     FM301800 27007KT P6SM SCT040=



000
FTUS42 KMFL 292320
TAFPBI
TAF
KPBI 292320Z 3000/3024 07007KT P6SM FEW040 FEW080
     FM300900 33005KT P6SM FEW030
     FM301600 05008KT P6SM SCT040=



000
FTUS42 KMFL 292320
TAFMIA
TAF
KMIA 292320Z 3000/3024 13006KT P6SM FEW035
     FM300900 35005KT P6SM FEW035
     FM301700 06006KT P6SM SCT040=



000
FTUS42 KMFL 292320
TAFFLL
TAF
KFLL 292320Z 3000/3024 10008KT P6SM FEW045 FEW250
     FM300900 33005KT P6SM FEW030
     FM301600 04008KT P6SM SCT040=



000
FTUS42 KMFL 292129 AAA
TAFAPF
TAF AMD
KAPF 292129Z 2921/3018 26007KT P6SM FEW040
     FM300000 VRB02KT P6SM SKC
     FM301300 06005KT P6SM FEW035=



000
FTUS42 KMFL 292125 AAA
TAFPBI
TAF AMD
KPBI 292125Z 2921/3018 08008KT P6SM FEW040 SCT080
     FM300000 VRB02KT P6SM FEW030
     FM301300 33005KT P6SM FEW030=



000
FTUS42 KMFL 292124 AAA
TAFMIA
TAF AMD
KMIA 292124Z 2921/3018 13008KT P6SM SCT050
     FM300000 VRB02KT P6SM FEW030
     FM301300 35005KT P6SM FEW035=



000
FTUS42 KMFL 292123 AAA
TAFFLL
TAF AMD
KFLL 292123Z 2921/3018 09009KT P6SM FEW040
     FM300000 VRB04KT P6SM FEW035
     FM301300 34005KT P6SM FEW030=



000
FTUS42 KMFL 291720
TAFMIA
TAF
KMIA 291720Z 2918/3018 11005KT P6SM SCT040
     FM300000 VRB02KT P6SM FEW030
     FM301300 35005KT P6SM FEW035=



000
FTUS42 KMFL 291720
TAFPBI
TAF
KPBI 291720Z 2918/3018 10008KT P6SM SCT040 SCT070
     FM300000 VRB02KT P6SM FEW030
     FM301300 33005KT P6SM FEW030=



000
FTUS42 KMFL 291720
TAFFLL
TAF
KFLL 291720Z 2918/3018 10007KT P6SM SCT040
     FM300000 VRB04KT P6SM FEW035
     FM301300 34005KT P6SM FEW030=



000
FTUS42 KMFL 291720
TAFAPF
TAF
KAPF 291720Z 2918/3018 27007KT P6SM FEW040
     FM300000 VRB02KT P6SM SKC
     FM301300 06005KT P6SM FEW035=



000
FTUS42 KMFL 291509 AAA
TAFMIA
TAF AMD
KMIA 291509Z 2915/3012 13008KT P6SM SCT040
     FM300000 VRB03KT P6SM FEW035=



000
FTUS42 KMFL 291509 AAA
TAFPBI
TAF AMD
KPBI 291509Z 2915/3012 09005KT P6SM SCT040
     FM291700 08010KT P6SM SCT040
     FM300000 VRB03KT P6SM FEW035=



000
FTUS42 KMFL 291509 AAA
TAFAPF
TAF AMD
KAPF 291509Z 2915/3012 13009KT P6SM SKC
     FM291700 26008KT P6SM SCT040
     FM300000 VRB03KT P6SM FEW035=



000
FTUS42 KMFL 291509 AAA
TAFFLL
TAF AMD
KFLL 291509Z 2915/3012 10008KT P6SM FEW040
     FM300000 VRB05KT P6SM FEW035=



000
FTUS42 KMFL 291129
TAFAPF
TAF
KAPF 291129Z 2912/3012 07005KT P6SM SCT080
     FM291700 26008KT P6SM SCT040
     FM300000 VRB03KT P6SM FEW035=



000
FTUS42 KMFL 291129
TAFFLL
TAF
KFLL 291129Z 2912/3012 10008KT P6SM SCT040
     FM291500 08010KT P6SM SCT040
     FM300000 VRB05KT P6SM FEW035=



000
FTUS42 KMFL 291129
TAFPBI
TAF
KPBI 291129Z 2912/3012 08005KT P6SM FEW035
     FM291600 08010KT P6SM SCT040
     FM300000 VRB03KT P6SM FEW035=



000
FTUS42 KMFL 291129
TAFMIA
TAF
KMIA 291129Z 2912/3012 10003KT P6SM SCT040
     FM291600 09010KT P6SM SCT040
     FM300000 VRB03KT P6SM FEW035=



000
FTUS42 KMFL 290906 AAA
TAFMIA
TAF AMD
KMIA 290906Z 2909/3006 10006KT P6SM FEW030
     FM291700 08010KT P6SM SCT040
     FM300100 06004KT P6SM FEW035=



000
FTUS42 KMFL 290906 AAA
TAFFLL
TAF AMD
KFLL 290906Z 2909/3006 13007KT P6SM SCT035
     FM291700 08010KT P6SM SCT040
     FM300100 06004KT P6SM FEW035=



000
FTUS42 KMFL 290906 AAA
TAFAPF
TAF AMD
KAPF 290906Z 2909/3006 07005KT P6SM FEW040
     FM291500 08010KT P6SM SCT040
     FM291900 26008KT P6SM SCT040
     FM300000 06004KT P6SM FEW035=



000
FTUS42 KMFL 290905 AAA
TAFPBI
TAF AMD
KPBI 290905Z 2909/3006 10005KT P6SM SCT035
     FM291700 08010KT P6SM SCT040
     FM300100 06004KT P6SM FEW035=



000
FTUS42 KMFL 290533
TAFPBI
TAF
KPBI 290533Z 2906/3006 08008KT P6SM SCT030
     FM290800 09005KT P6SM FEW035
     FM291700 08010KT P6SM SCT040
     FM300100 06004KT P6SM FEW035=



000
FTUS42 KMFL 290533
TAFMIA
TAF
KMIA 290533Z 2906/3006 10006KT P6SM FEW030
     FM291700 08010KT P6SM SCT040
     FM300100 06004KT P6SM FEW035=



000
FTUS42 KMFL 290533
TAFFLL
TAF
KFLL 290533Z 2906/3006 10008KT P6SM SCT030
     FM290800 10005KT P6SM FEW035
     FM291700 09010KT P6SM SCT040
     FM300100 06004KT P6SM FEW035=



000
FTUS42 KMFL 290533
TAFAPF
TAF
KAPF 290533Z 2906/3006 06005KT P6SM FEW040
     FM291500 08010KT P6SM SCT040
     FM291900 26008KT P6SM SCT040
     FM300000 06004KT P6SM FEW035=



000
FTUS42 KMFL 290239 AAB
TAFAPF
TAF AMD
KAPF 290239Z 2903/2924 VRB05KT P6SM FEW040
     FM291800 25010KT P6SM SCT040=



000
FTUS42 KMFL 290238 AAB
TAFMIA
TAF AMD
KMIA 290238Z 2903/2924 08009KT P6SM FEW030 SCT130
     FM290700 08004KT P6SM FEW035 SCT250
     FM291300 09010KT P6SM SCT040=



000
FTUS42 KMFL 290236 AAB
TAFFLL
TAF AMD
KFLL 290236Z 2903/2924 10010KT P6SM FEW050 SCT250
     FM290400 09005KT P6SM FEW030 SCT250
     FM291300 09011KT P6SM SCT040=



000
FTUS42 KMFL 290234 AAB
TAFPBI
TAF AMD
KPBI 290234Z 2903/2924 07008KT P6SM FEW040
     FM290700 09005KT P6SM FEW035
     FM291300 08010KT P6SM SCT040=



000
FTUS42 KMFL 290054 AAA
TAFPBI
TAF AMD
KPBI 290054Z 2901/2924 07008KT P6SM FEW040
     FM290400 09005KT P6SM FEW035
     FM291300 08010KT P6SM SCT040=



000
FTUS42 KMFL 290054 AAA
TAFAPF
TAF AMD
KAPF 290054Z 2901/2924 00000KT P6SM FEW030 SCT130
     FM291700 25010KT P6SM SCT040=



000
FTUS42 KMFL 290054 AAA
TAFMIA
TAF AMD
KMIA 290054Z 2901/2924 07011KT P6SM FEW030 SCT130
     FM290400 09007KT P6SM FEW035 SCT250
     FM291300 09010KT P6SM SCT040=



000
FTUS42 KMFL 290054 AAA
TAFFLL
TAF AMD
KFLL 290054Z 2901/2924 10010KT P6SM FEW050 SCT250
     FM290400 09008KT P6SM FEW030 SCT250
     FM291300 09011KT P6SM SCT040=



000
FTUS42 KMFL 282326
TAFFLL
TAF
KFLL 282326Z 2900/2924 09012KT P6SM FEW045 SCT250
     FM290200 09008KT P6SM FEW030 SCT250
     FM291300 09011KT P6SM SCT040=



000
FTUS42 KMFL 282326
TAFPBI
TAF
KPBI 282326Z 2900/2924 09010KT P6SM FEW035
     FM290200 09005KT P6SM FEW035
     FM291300 08010KT P6SM SCT040=



000
FTUS42 KMFL 282326
TAFAPF
TAF
KAPF 282326Z 2900/2924 27004KT P6SM FEW060
     FM290100 07005KT P6SM FEW250
     FM291700 25010KT P6SM SCT040=



000
FTUS42 KMFL 282326
TAFMIA
TAF
KMIA 282326Z 2900/2924 09011KT P6SM SCT040 SCT250
     FM290200 09007KT P6SM FEW035 SCT250
     FM291300 09010KT P6SM SCT040=



000
FTUS42 KMFL 282129 AAA
TAFAPF
TAF AMD
KAPF 282129Z 2821/2918 10006KT P6SM FEW060
     FM290000 07003KT P6SM SKC
     FM291300 12008KT P6SM FEW030
     FM291600 25010KT P6SM SKC=



000
FTUS42 KMFL 282128 AAA
TAFMIA
TAF AMD
KMIA 282128Z 2821/2918 09011KT P6SM SCT040 SCT250
     FM290000 09005KT P6SM FEW030
     FM291300 09008KT P6SM SCT040=



000
FTUS42 KMFL 282126 AAA
TAFFLL
TAF AMD
KFLL 282126Z 2821/2918 11010KT P6SM FEW040 SCT250
     FM290000 09005KT P6SM FEW030
     FM291300 09010KT P6SM SCT040=



000
FTUS42 KMFL 282123 AAA
TAFPBI
TAF AMD
KPBI 282123Z 2821/2918 10010KT P6SM SCT035 SCT050
     FM290000 09003KT P6SM FEW030
     FM291300 09008KT P6SM SCT040=



000
FTUS42 KMFL 281724
TAFFLL
TAF
KFLL 281724Z 2818/2918 09011KT P6SM FEW040
     FM290000 09005KT P6SM FEW030
     FM291300 09010KT P6SM SCT040=



000
FTUS42 KMFL 281724
TAFMIA
TAF
KMIA 281724Z 2818/2918 09011KT P6SM FEW040
     FM290000 09003KT P6SM FEW030
     FM291300 09008KT P6SM SCT040=



000
FTUS42 KMFL 281724
TAFAPF
TAF
KAPF 281724Z 2818/2918 09010KT P6SM FEW040
     FM290000 07003KT P6SM SKC
     FM291300 12008KT P6SM FEW030
     FM291600 25010KT P6SM SKC=



000
FTUS42 KMFL 281724
TAFPBI
TAF
KPBI 281724Z 2818/2918 09011KT P6SM SCT040
     FM290000 09003KT P6SM FEW030
     FM291300 09008KT P6SM SCT040=



    US Dept of Commerce
    National Oceanic and Atmospheric Administration
    National Weather Service
    1325 East West Highway
    Silver Spring, MD 20910
    Page Author: NWS Internet Services Team
Disclaimer
Information Quality
Credits
Glossary
Privacy Policy
Freedom of Information Act (FOIA)
About Us
Career Opportunities